createdAt,value
2022-12-11T00:03:47.262Z,6.60
2022-12-11T00:17:47.276Z,5.50
2022-12-11T00:31:47.306Z,5.80
2022-12-11T00:45:47.370Z,5.90
2022-12-11T00:59:47.291Z,5.50
2022-12-11T01:13:47.310Z,5.00
2022-12-11T01:27:47.383Z,4.50
2022-12-11T01:41:47.305Z,3.90
2022-12-11T01:55:47.320Z,4.10
2022-12-11T02:09:47.322Z,3.80
2022-12-11T02:23:47.332Z,3.80
2022-12-11T02:37:47.355Z,4.00
2022-12-11T02:51:47.358Z,3.30
2022-12-11T03:05:47.344Z,3.10
2022-12-11T03:19:47.343Z,3.10
2022-12-11T03:33:47.350Z,2.75
2022-12-11T03:47:47.360Z,2.70
2022-12-11T04:01:47.407Z,2.30
2022-12-11T04:15:47.441Z,2.00
2022-12-11T04:29:47.380Z,2.30
2022-12-11T04:43:47.387Z,2.00
2022-12-11T04:57:47.391Z,1.70
2022-12-11T05:11:47.388Z,1.60
2022-12-11T05:25:47.414Z,1.50
2022-12-11T05:39:47.407Z,1.90
2022-12-11T05:53:47.421Z,1.20
2022-12-11T06:07:47.474Z,1.30
2022-12-11T06:21:47.718Z,1.20
2022-12-11T06:35:47.706Z,1.40
2022-12-11T06:49:47.706Z,3.00
2022-12-11T07:04:51.877Z,3.60
2022-12-11T07:19:47.914Z,2.10
2022-12-11T07:34:51.670Z,1.80
2022-12-11T07:49:47.886Z,2.50
2022-12-11T08:04:47.909Z,4.20
2022-12-11T08:19:47.951Z,1.65
2022-12-11T08:35:47.967Z,1.60
2022-12-11T08:50:47.976Z,8.10
2022-12-11T09:05:47.996Z,12.10
2022-12-11T09:20:47.991Z,11.00
2022-12-11T09:35:48.016Z,11.40
2022-12-11T09:50:48.025Z,9.30
2022-12-11T10:05:48.036Z,8.40
2022-12-11T10:20:48.046Z,7.10
2022-12-11T10:35:48.040Z,8.00
2022-12-11T10:50:48.058Z,6.80
2022-12-11T11:05:49.609Z,6.30
2022-12-11T11:20:48.079Z,6.80
2022-12-11T11:35:48.065Z,5.70
2022-12-11T11:50:48.086Z,6.00
2022-12-11T12:05:48.076Z,5.50
2022-12-11T12:20:48.090Z,6.00
2022-12-11T12:35:48.131Z,4.30
2022-12-11T12:50:48.096Z,5.25
2022-12-11T13:06:48.104Z,5.90
2022-12-11T13:21:48.120Z,5.30
2022-12-11T13:37:48.107Z,5.00
2022-12-11T13:52:48.120Z,4.10
2022-12-11T14:07:48.158Z,5.30
2022-12-11T14:22:48.131Z,4.00
2022-12-11T14:37:48.137Z,4.30
2022-12-11T14:52:48.136Z,3.30
2022-12-11T15:07:48.180Z,3.00
2022-12-11T15:22:48.143Z,2.70
2022-12-11T15:37:48.159Z,2.70
2022-12-11T15:52:48.142Z,3.00
2022-12-11T16:07:48.294Z,2.50
2022-12-11T16:21:48.165Z,2.30
2022-12-11T16:35:48.160Z,3.50
2022-12-11T16:49:48.160Z,7.30
2022-12-11T17:03:48.161Z,9.30
2022-12-11T17:17:48.197Z,4.10
2022-12-11T17:31:48.168Z,6.20
2022-12-11T17:45:48.178Z,5.60
2022-12-11T17:59:48.183Z,9.20
2022-12-11T18:13:48.182Z,13.20
2022-12-11T18:27:48.211Z,10.80
2022-12-11T18:41:58.443Z,9.40
2022-12-11T18:55:48.194Z,11.50
2022-12-11T19:09:48.516Z,7.40
2022-12-11T19:23:48.196Z,7.85
2022-12-11T19:37:48.209Z,5.30
2022-12-11T19:51:48.192Z,6.90
2022-12-11T20:05:48.205Z,9.70
2022-12-11T20:19:48.204Z,7.10
2022-12-11T20:33:48.205Z,7.90
2022-12-11T20:47:48.236Z,7.80
2022-12-11T21:01:48.239Z,6.40
2022-12-11T21:15:48.217Z,6.50
2022-12-11T21:29:48.396Z,6.70
2022-12-11T21:44:56.411Z,5.20
2022-12-11T21:57:48.417Z,5.00
2022-12-11T22:11:48.395Z,5.10
2022-12-11T22:25:48.394Z,4.80
2022-12-11T22:39:48.383Z,5.20
2022-12-11T22:53:48.387Z,4.80
2022-12-11T23:07:48.485Z,4.50
2022-12-11T23:21:48.409Z,4.40
2022-12-11T23:35:48.460Z,5.00
2022-12-11T23:49:48.425Z,4.00
